Time;durP1;ratioP1;P1;durP2;ratioP2;P2;SDS_P1;SDS_P2;PMS_P1;PMS_P2;Temp;Humidity;BMP_temperature;BMP_pressure;BME280_temperature;BME280_humidity;BME280_pressure;Samples;Min_cycle;Max_cycle;Signal;HPM_P1;HPM_P2
2023/03/06 04:57:53;;;;;;;4.50;4.10;;;0.40;99.90;;;;;;4916600;29;20222;-77
2023/03/06 05:00:23;;;;;;;5.82;4.82;;;0.30;99.90;;;;;;4918341;29;20206;-77
2023/03/06 05:02:51;;;;;;;4.10;3.50;;;0.40;99.90;;;;;;4918848;29;20209;-77
2023/03/06 05:05:18;;;;;;;3.80;3.38;;;0.40;99.90;;;;;;4918425;29;20225;-77
2023/03/06 05:07:45;;;;;;;3.80;3.40;;;0.40;99.90;;;;;;4918147;29;20205;-77
2023/03/06 05:10:13;;;;;;;4.47;4.07;;;0.40;99.90;;;;;;4975564;23;20223;-76
2023/03/06 05:12:40;;;;;;;4.18;3.78;;;0.40;99.90;;;;;;4976283;28;20290;-75
2023/03/06 05:15:11;;;;;;;4.40;4.00;;;0.40;99.90;;;;;;4976742;28;20229;-77
2023/03/06 05:17:38;;;;;;;4.50;4.10;;;0.40;99.90;;;;;;4976827;28;20192;-75
2023/03/06 05:20:08;;;;;;;4.70;4.20;;;0.40;99.90;;;;;;4976105;28;20231;-75
2023/03/06 05:22:35;;;;;;;4.00;3.13;;;0.40;99.90;;;;;;4976004;28;20676;-75
2023/03/06 05:25:03;;;;;;;4.97;4.38;;;0.40;99.90;;;;;;4976341;28;20203;-75
2023/03/06 05:27:30;;;;;;;4.65;4.15;;;0.50;99.90;;;;;;4976106;28;20278;-74
2023/03/06 05:29:57;;;;;;;5.65;3.92;;;0.50;99.90;;;;;;4976217;28;20219;-72
2023/03/06 05:32:25;;;;;;;4.72;3.50;;;0.50;99.90;;;;;;4976164;28;20210;-72
2023/03/06 05:34:52;;;;;;;4.65;4.20;;;0.50;99.90;;;;;;4976726;28;20203;-76
2023/03/06 05:37:18;;;;;;;5.20;4.57;;;0.50;99.90;;;;;;4978267;28;20199;-77
2023/03/06 05:39:45;;;;;;;4.88;4.03;;;0.50;99.90;;;;;;4978166;28;20238;-70
2023/03/06 05:42:12;;;;;;;4.20;3.65;;;0.50;99.90;;;;;;4975293;28;20565;-68
2023/03/06 05:44:40;;;;;;;4.78;4.07;;;0.50;99.90;;;;;;4975845;28;20204;-68
2023/03/06 05:47:07;;;;;;;5.30;3.85;;;0.50;99.90;;;;;;4976690;28;20605;-76
2023/03/06 05:49:36;;;;;;;5.10;4.40;;;0.60;99.90;;;;;;4976455;28;20223;-76
2023/03/06 05:52:04;;;;;;;5.03;4.28;;;0.60;99.90;;;;;;4975789;28;20575;-77
2023/03/06 05:54:31;;;;;;;5.07;4.05;;;0.60;99.90;;;;;;4976581;28;20208;-78
2023/03/06 05:56:58;;;;;;;6.40;4.47;;;0.60;99.90;;;;;;4976053;28;20207;-75
2023/03/06 05:59:27;;;;;;;5.05;4.15;;;0.60;99.90;;;;;;4976559;28;20223;-77
2023/03/06 06:01:54;;;;;;;5.10;4.22;;;0.60;99.90;;;;;;4976135;28;20286;-76
2023/03/06 06:04:21;;;;;;;6.32;4.90;;;0.60;99.90;;;;;;4976298;28;20241;-77
2023/03/06 06:06:53;;;;;;;4.53;4.07;;;0.70;99.90;;;;;;4976610;28;20203;-78
2023/03/06 06:09:21;;;;;;;4.97;4.15;;;0.70;99.90;;;;;;4979449;28;20231;-76
2023/03/06 06:11:50;;;;;;;4.70;4.28;;;0.70;99.90;;;;;;4980771;28;20187;-78
2023/03/06 06:14:16;;;;;;;6.13;4.50;;;0.70;99.90;;;;;;4979657;28;20207;-75
2023/03/06 11:12:31;;;;;;;16.67;9.35;;;3.80;99.90;;;;;;4997568;28;20329;-77
2023/03/06 11:15:22;;;;;;;13.60;8.98;;;3.90;99.90;;;;;;5001766;28;20206;-77
2023/03/06 11:17:52;;;;;;;14.13;8.95;;;4.00;99.90;;;;;;4977160;28;20207;-77
2023/03/06 11:20:21;;;;;;;15.57;9.32;;;4.10;99.90;;;;;;5000824;28;20601;-77
2023/03/06 11:22:51;;;;;;;16.92;10.05;;;4.20;99.90;;;;;;4998368;28;20213;-77
2023/03/06 11:25:24;;;;;;;14.10;9.07;;;4.20;98.80;;;;;;4999411;28;20190;-78
2023/03/06 11:27:59;;;;;;;14.00;8.00;;;4.20;99.90;;;;;;5002280;28;20294;-78
2023/03/06 11:30:32;;;;;;;15.63;8.55;;;4.20;97.40;;;;;;5003973;28;20229;-78
2023/03/06 11:33:02;;;;;;;12.00;8.23;;;4.20;98.50;;;;;;5006853;28;20298;-78
2023/03/06 11:35:34;;;;;;;11.10;7.32;;;4.30;99.90;;;;;;5004331;28;20207;-79
2023/03/06 11:38:05;;;;;;;10.45;7.45;;;4.40;98.70;;;;;;5005579;28;20374;-78
2023/03/06 11:40:40;;;;;;;10.45;7.28;;;4.60;97.10;;;;;;5001278;28;20222;-78
2023/03/06 11:43:16;;;;;;;9.95;6.25;;;4.70;94.40;;;;;;5004091;28;20182;-78
2023/03/06 11:45:46;;;;;;;10.00;6.70;;;4.90;91.10;;;;;;5008704;28;20186;-78
2023/03/06 11:48:23;;;;;;;8.88;6.65;;;5.00;88.60;;;;;;5008447;28;20210;-78
2023/03/06 11:50:52;;;;;;;7.28;5.78;;;5.10;77.70;;;;;;5007720;28;20226;-78
2023/03/06 11:53:20;;;;;;;8.38;5.80;;;5.20;75.00;;;;;;5009033;28;20202;-78
2023/03/06 11:55:57;;;;;;;8.07;5.60;;;5.30;73.10;;;;;;5008142;28;20213;-78
2023/03/06 11:59:00;;;;;;;6.30;5.22;;;5.50;70.80;;;;;;5008457;28;20194;-78
2023/03/06 12:01:33;;;;;;;5.78;5.05;;;5.60;64.90;;;;;;4953415;28;20573;-78
2023/03/06 12:04:35;;;;;;;5.60;4.40;;;5.60;60.10;;;;;;5000436;28;20191;-79
2023/03/06 12:07:16;;;;;;;6.85;4.65;;;5.70;55.90;;;;;;4997961;28;20531;-79
2023/03/06 12:09:46;;;;;;;5.60;5.00;;;5.70;55.40;;;;;;4998148;28;20190;-78
2023/03/06 12:12:47;;;;;;;7.18;4.80;;;5.60;54.50;;;;;;4998299;28;20249;-79
2023/03/06 12:15:34;;;;;;;5.30;4.60;;;5.60;55.30;;;;;;5000498;28;20193;-78
2023/03/06 12:18:18;;;;;;;6.40;5.15;;;5.60;55.30;;;;;;5002308;28;20214;-81
2023/03/06 12:20:54;;;;;;;7.50;5.35;;;5.50;54.30;;;;;;5002643;28;20582;-78
2023/03/06 12:23:37;;;;;;;5.75;5.07;;;5.30;53.30;;;;;;5007593;28;20201;-78
2023/03/06 12:26:19;;;;;;;7.45;5.47;;;5.20;55.00;;;;;;5007813;28;20186;-78
2023/03/06 12:29:03;;;;;;;5.80;5.10;;;5.20;55.00;;;;;;5007054;28;20183;-78
2023/03/06 12:31:43;;;;;;;7.07;5.40;;;5.10;55.90;;;;;;5005438;28;20226;-78
2023/03/06 12:34:34;;;;;;;6.57;4.68;;;5.20;56.90;;;;;;5008747;28;20190;-78
2023/03/06 12:37:12;;;;;;;6.72;5.00;;;5.20;55.30;;;;;;4998460;28;20195;-79
2023/03/06 12:39:56;;;;;;;6.32;4.78;;;5.20;55.00;;;;;;4997962;28;20218;-78
2023/03/06 12:42:41;;;;;;;6.35;4.40;;;5.30;57.00;;;;;;4998718;28;20186;-78
2023/03/06 12:45:26;;;;;;;6.75;4.38;;;5.40;56.60;;;;;;4998516;28;20186;-78
2023/03/06 12:47:56;;;;;;;4.95;4.28;;;5.50;56.00;;;;;;4997631;28;20640;-78
2023/03/06 12:50:26;;;;;;;4.72;4.32;;;5.40;54.00;;;;;;4995427;28;20226;-74
2023/03/06 12:52:54;;;;;;;5.13;4.03;;;5.40;54.10;;;;;;4994186;28;20666;-77
2023/03/06 12:55:22;;;;;;;6.60;5.22;;;5.30;54.30;;;;;;4998672;28;20681;-77
2023/03/06 12:57:49;;;;;;;7.72;4.90;;;5.20;53.70;;;;;;5017952;28;20206;-77
2023/03/06 13:00:52;;;;;;;7.28;4.60;;;5.10;52.70;;;;;;5018615;28;20249;-77
2023/03/06 13:03:24;;;;;;;5.60;4.57;;;5.00;54.60;;;;;;5008808;28;20190;-76
2023/03/06 13:06:20;;;;;;;5.10;4.60;;;5.00;55.30;;;;;;5009993;28;20210;-78
2023/03/06 13:09:03;;;;;;;4.88;3.95;;;5.10;54.50;;;;;;4989773;28;20206;-77
2023/03/06 13:12:09;;;;;;;8.15;4.68;;;5.20;55.00;;;;;;4994590;28;20222;-77
2023/03/06 13:14:57;;;;;;;8.02;4.82;;;5.20;54.00;;;;;;4994236;28;20218;-77
2023/03/06 13:17:27;;;;;;;5.18;4.15;;;5.30;54.10;;;;;;4995676;28;20191;-77
2023/03/06 13:20:27;;;;;;;7.03;4.70;;;5.20;54.10;;;;;;4998646;28;20218;-77
2023/03/06 13:22:56;;;;;;;4.25;3.80;;;5.20;54.40;;;;;;4998412;28;20191;-78
2023/03/06 13:25:48;;;;;;;5.07;4.25;;;5.20;55.00;;;;;;4998252;28;20203;-77
2023/03/06 13:28:26;;;;;;;5.68;4.32;;;5.20;55.00;;;;;;4997918;28;20601;-77
2023/03/06 13:30:54;;;;;;;5.00;4.50;;;5.20;55.00;;;;;;4998069;28;20244;-77
2023/03/06 13:33:53;;;;;;;5.18;4.38;;;5.20;54.40;;;;;;4997931;28;20212;-77
2023/03/06 13:36:23;;;;;;;5.80;4.57;;;5.20;53.20;;;;;;4986412;28;20286;-77
2023/03/06 13:39:03;;;;;;;5.70;4.68;;;5.10;53.20;;;;;;4997694;28;20191;-77
2023/03/06 13:41:44;;;;;;;5.78;4.57;;;5.10;53.20;;;;;;4997844;28;20724;-77
2023/03/06 13:44:47;;;;;;;6.47;4.95;;;5.10;52.90;;;;;;4998065;28;20183;-77
2023/03/06 13:47:34;;;;;;;5.10;4.35;;;4.90;54.20;;;;;;4998088;28;20555;-77
2023/03/06 13:50:26;;;;;;;5.45;4.47;;;4.90;54.80;;;;;;4997520;28;20187;-76
2023/03/06 13:53:05;;;;;;;4.13;3.78;;;5.00;55.20;;;;;;4997845;28;20198;-77
2023/03/06 13:55:40;;;;;;;4.18;3.78;;;5.10;56.00;;;;;;4998359;28;20186;-76
2023/03/06 13:58:24;;;;;;;5.47;4.10;;;5.30;55.70;;;;;;4997587;28;20183;-76
2023/03/06 14:01:13;;;;;;;5.13;4.05;;;5.40;54.40;;;;;;4998084;28;20230;-76
2023/03/06 14:04:02;;;;;;;5.55;4.03;;;5.30;53.10;;;;;;4997432;28;20195;-76
2023/03/06 14:07:09;;;;;;;5.18;4.32;;;5.30;52.60;;;;;;4998292;28;20207;-76
2023/03/06 14:09:41;;;;;;;4.18;3.83;;;5.20;52.90;;;;;;4968176;28;20214;-75
2023/03/06 14:12:18;;;;;;;3.78;3.40;;;5.20;52.20;;;;;;4997472;28;20222;-75
2023/03/06 14:14:50;;;;;;;4.18;3.60;;;5.20;51.40;;;;;;4996864;28;20581;-76
2023/03/06 14:17:25;;;;;;;3.83;3.53;;;5.20;51.00;;;;;;4997463;28;20190;-77
2023/03/06 14:19:51;;;;;;;4.35;3.95;;;5.20;50.00;;;;;;4997417;28;20209;-77
2023/03/06 14:22:23;;;;;;;5.28;4.45;;;5.20;49.50;;;;;;4997063;28;20273;-77
2023/03/06 14:24:57;;;;;;;3.90;3.60;;;5.20;49.70;;;;;;4997322;28;20191;-75
2023/03/06 14:27:43;;;;;;;4.57;3.97;;;5.10;49.30;;;;;;4997181;28;20241;-76
2023/03/06 14:30:13;;;;;;;4.80;3.53;;;5.10;48.50;;;;;;4996057;28;20693;-75
2023/03/06 14:32:41;;;;;;;3.95;3.65;;;5.00;49.40;;;;;;4996964;28;20202;-74
2023/03/06 14:35:23;;;;;;;7.80;5.50;;;5.00;49.90;;;;;;4997015;28;20206;-74
2023/03/06 14:37:53;;;;;;;6.82;5.38;;;5.00;49.10;;;;;;4997131;28;20187;-75
2023/03/06 14:40:25;;;;;;;6.22;4.53;;;5.00;50.00;;;;;;4997158;28;20230;-75
2023/03/06 14:43:12;;;;;;;4.78;4.38;;;5.10;49.80;;;;;;4997319;28;20198;-75
2023/03/06 14:45:50;;;;;;;4.57;4.18;;;5.10;49.90;;;;;;4998222;28;20183;-77
2023/03/06 14:48:16;;;;;;;4.90;3.97;;;5.20;49.80;;;;;;4997634;28;20187;-77
2023/03/06 14:50:49;;;;;;;4.60;4.00;;;5.20;50.10;;;;;;4997126;28;20222;-76
2023/03/06 14:53:19;;;;;;;6.30;4.30;;;5.20;49.80;;;;;;4997746;28;20183;-76
2023/03/06 14:55:50;;;;;;;7.97;5.40;;;5.30;50.10;;;;;;4999053;28;20621;-77
2023/03/06 14:58:22;;;;;;;7.53;5.43;;;5.30;49.60;;;;;;5000768;28;20215;-77
2023/03/06 15:00:53;;;;;;;4.40;3.88;;;5.30;49.60;;;;;;5000087;28;20601;-77
2023/03/06 15:03:24;;;;;;;5.45;4.10;;;5.30;48.90;;;;;;5000958;28;20194;-77
2023/03/06 15:05:52;;;;;;;4.43;4.00;;;5.20;49.00;;;;;;4999208;28;20187;-76
2023/03/06 15:08:25;;;;;;;4.65;3.90;;;5.20;50.10;;;;;;4997604;28;20218;-76
2023/03/06 15:10:56;;;;;;;9.45;5.05;;;5.10;49.00;;;;;;4998986;28;20219;-76
2023/03/06 15:13:27;;;;;;;6.00;4.10;;;5.00;48.50;;;;;;4996411;28;20213;-76
2023/03/06 15:15:58;;;;;;;6.68;5.05;;;4.90;49.10;;;;;;4998724;28;20655;-76
2023/03/06 15:18:32;;;;;;;8.52;6.45;;;4.80;49.60;;;;;;5000226;28;20226;-76
2023/03/06 15:21:18;;;;;;;7.50;5.63;;;4.80;49.90;;;;;;4997718;28;20759;-76
2023/03/06 15:27:30;;;;;;;7.25;5.25;;;4.40;50.80;;;;;;4996127;28;20228;-77
2023/03/06 15:30:13;;;;;;;9.63;6.43;;;4.40;51.60;;;;;;4997608;28;20194;-76
2023/03/06 15:32:41;;;;;;;6.97;5.18;;;4.30;52.00;;;;;;4996843;28;20187;-72
2023/03/06 15:35:29;;;;;;;6.72;4.97;;;4.30;52.70;;;;;;4995810;28;20263;-72
2023/03/06 15:37:56;;;;;;;5.15;4.30;;;4.30;53.30;;;;;;4995716;28;20213;-75
2023/03/06 15:40:26;;;;;;;5.47;5.00;;;4.30;53.80;;;;;;4994788;28;20701;-76
2023/03/06 15:42:53;;;;;;;6.03;5.05;;;4.20;54.30;;;;;;4995923;28;20183;-76
2023/03/06 15:45:23;;;;;;;8.60;5.55;;;4.20;54.60;;;;;;4995780;28;20203;-73
2023/03/06 15:47:52;;;;;;;4.85;4.45;;;4.20;55.70;;;;;;4995675;28;20282;-73
2023/03/06 15:50:21;;;;;;;5.90;5.30;;;4.20;56.20;;;;;;4995430;28;20233;-73
2023/03/06 15:52:48;;;;;;;6.38;4.68;;;4.10;55.60;;;;;;4995500;28;20211;-73
2023/03/06 15:55:17;;;;;;;8.40;5.30;;;4.10;55.80;;;;;;4995450;28;20207;-73
2023/03/06 15:57:50;;;;;;;5.70;4.88;;;4.10;56.50;;;;;;4995997;28;20206;-74
2023/03/06 16:00:24;;;;;;;5.63;4.75;;;4.10;56.90;;;;;;4995664;28;20249;-76
2023/03/06 16:02:51;;;;;;;8.25;6.00;;;4.10;57.50;;;;;;4995469;28;20628;-75
2023/03/06 16:05:18;;;;;;;7.72;6.07;;;4.00;57.60;;;;;;4995889;28;20205;-76
2023/03/06 16:07:45;;;;;;;9.10;5.40;;;4.00;58.10;;;;;;4996162;28;20202;-76
2023/03/06 16:10:14;;;;;;;6.10;4.95;;;3.90;58.50;;;;;;4996603;28;20195;-75
2023/03/06 16:12:42;;;;;;;7.38;5.45;;;3.80;58.50;;;;;;4996130;28;20294;-75
2023/03/06 16:15:18;;;;;;;5.63;4.97;;;3.70;59.00;;;;;;4995462;28;20635;-76
2023/03/06 16:17:46;;;;;;;5.90;4.40;;;3.70;60.50;;;;;;4995192;28;20190;-73
2023/03/06 16:20:16;;;;;;;5.40;4.90;;;3.60;61.70;;;;;;4994805;28;20209;-74
2023/03/06 16:22:43;;;;;;;5.13;4.38;;;3.60;62.20;;;;;;4995356;28;20196;-74
2023/03/06 16:25:11;;;;;;;4.55;3.97;;;3.60;62.30;;;;;;4995340;28;20658;-74
2023/03/06 16:27:39;;;;;;;4.93;4.38;;;3.50;62.80;;;;;;4995510;28;20224;-74
2023/03/06 16:30:07;;;;;;;5.38;4.15;;;3.50;63.70;;;;;;4995519;28;20274;-72
2023/03/06 16:32:33;;;;;;;5.35;4.47;;;3.50;64.20;;;;;;4994918;28;20209;-74
2023/03/06 16:35:01;;;;;;;4.95;4.50;;;3.40;64.00;;;;;;4994897;28;20234;-73
2023/03/06 16:37:28;;;;;;;4.00;3.70;;;3.40;64.50;;;;;;4994690;28;20681;-75
2023/03/06 16:39:55;;;;;;;4.28;3.97;;;3.40;64.50;;;;;;4994594;28;20214;-76
2023/03/06 16:42:22;;;;;;;4.90;4.32;;;3.40;64.60;;;;;;4995014;28;20237;-76
2023/03/06 16:44:48;;;;;;;6.28;4.55;;;3.30;65.40;;;;;;4994542;28;20191;-74
2023/03/06 16:47:16;;;;;;;4.72;4.30;;;3.20;66.30;;;;;;4994882;28;20207;-75
2023/03/06 16:49:43;;;;;;;4.60;4.20;;;3.20;67.30;;;;;;4994945;28;20202;-76
2023/03/06 16:52:11;;;;;;;4.50;3.92;;;3.10;68.50;;;;;;4993992;28;20218;-75
2023/03/06 16:54:38;;;;;;;5.35;4.32;;;3.10;68.20;;;;;;4994577;28;20209;-75
2023/03/06 16:57:05;;;;;;;5.50;4.93;;;3.10;68.90;;;;;;4994294;28;20217;-76
2023/03/06 16:59:31;;;;;;;4.45;4.05;;;3.00;68.90;;;;;;4994242;28;20589;-75
2023/03/06 17:01:58;;;;;;;5.65;4.35;;;3.00;69.10;;;;;;4994733;28;20594;-76
2023/03/06 17:04:25;;;;;;;5.68;5.03;;;3.00;69.50;;;;;;4994441;28;20753;-74
2023/03/06 17:06:52;;;;;;;5.35;4.38;;;2.90;70.10;;;;;;4994766;28;20199;-75
2023/03/06 17:09:20;;;;;;;7.05;4.75;;;2.90;70.10;;;;;;4995185;28;20202;-74
2023/03/06 17:11:47;;;;;;;7.35;4.80;;;2.80;71.00;;;;;;4995169;28;20225;-74
2023/03/06 17:14:14;;;;;;;3.90;3.60;;;2.80;71.40;;;;;;4994077;28;20222;-74
2023/03/06 17:16:41;;;;;;;5.07;4.57;;;2.80;71.40;;;;;;4994493;28;20202;-72
2023/03/06 17:19:09;;;;;;;4.57;4.18;;;2.70;72.50;;;;;;4994635;28;20187;-74
2023/03/06 17:21:37;;;;;;;5.35;4.65;;;2.70;72.30;;;;;;4994153;28;20702;-74
2023/03/06 17:24:04;;;;;;;5.07;4.63;;;2.70;72.80;;;;;;4995351;28;20206;-74
2023/03/06 17:26:32;;;;;;;5.32;4.68;;;2.70;74.00;;;;;;4995270;28;20203;-78
2023/03/06 17:28:59;;;;;;;5.00;4.35;;;2.70;73.60;;;;;;4995703;28;20511;-78
2023/03/06 17:31:27;;;;;;;5.18;4.70;;;2.60;73.90;;;;;;4995392;28;20218;-78
2023/03/06 17:33:58;;;;;;;6.70;4.93;;;2.60;73.90;;;;;;4994534;28;20780;-77
2023/03/06 17:36:25;;;;;;;5.50;4.97;;;2.60;74.60;;;;;;4994622;28;20241;-77
2023/03/06 17:38:55;;;;;;;5.22;4.72;;;2.60;74.90;;;;;;4994735;28;20191;-77
2023/03/06 17:41:23;;;;;;;5.97;5.38;;;2.50;75.50;;;;;;4994263;28;20257;-77
2023/03/06 17:43:51;;;;;;;5.88;5.28;;;2.50;75.80;;;;;;4994219;28;20210;-77
2023/03/06 17:46:19;;;;;;;6.88;4.75;;;2.50;76.00;;;;;;4994129;28;20203;-77
2023/03/06 17:48:46;;;;;;;5.28;4.68;;;2.50;76.40;;;;;;4995464;28;20551;-76
2023/03/06 17:51:13;;;;;;;5.70;4.97;;;2.50;76.70;;;;;;4994485;28;20219;-76
2023/03/06 17:53:40;;;;;;;6.88;5.50;;;2.50;76.60;;;;;;4994099;28;20202;-76
2023/03/06 17:56:09;;;;;;;5.97;5.38;;;2.50;77.00;;;;;;4994648;28;20207;-77
2023/03/06 17:58:35;;;;;;;5.05;4.57;;;2.50;77.50;;;;;;4994376;28;20213;-77
2023/03/06 18:01:11;;;;;;;5.05;4.55;;;2.50;78.20;;;;;;4994083;28;20245;-78
2023/03/06 18:03:38;;;;;;;4.43;4.03;;;2.50;78.90;;;;;;4995672;28;20193;-74
2023/03/06 18:06:08;;;;;;;5.50;5.00;;;2.50;78.80;;;;;;4998938;28;20211;-74
2023/03/06 18:08:35;;;;;;;5.72;5.18;;;2.40;79.00;;;;;;4999645;28;20211;-74
2023/03/06 18:11:04;;;;;;;6.28;5.20;;;2.40;79.70;;;;;;5001947;28;20222;-77
2023/03/06 18:13:31;;;;;;;7.90;4.80;;;2.40;81.00;;;;;;5000313;28;20237;-77
2023/03/06 18:15:58;;;;;;;5.45;4.65;;;2.40;81.20;;;;;;5000212;28;20670;-77
2023/03/06 18:18:27;;;;;;;5.35;4.68;;;2.40;81.70;;;;;;4998339;28;20649;-77
2023/03/06 18:20:54;;;;;;;5.00;4.53;;;2.40;82.40;;;;;;4997979;28;20724;-77
2023/03/06 18:23:21;;;;;;;4.20;3.80;;;2.40;83.70;;;;;;4997812;28;20199;-76
2023/03/06 18:25:48;;;;;;;5.32;3.95;;;2.30;84.70;;;;;;4997677;28;20261;-78
2023/03/06 18:28:15;;;;;;;4.25;3.85;;;2.40;85.90;;;;;;4997772;28;20187;-77
2023/03/06 18:30:42;;;;;;;4.18;3.80;;;2.30;86.90;;;;;;4997803;28;20250;-77
2023/03/06 18:33:09;;;;;;;4.13;3.72;;;2.30;87.60;;;;;;4997532;28;20289;-78
2023/03/06 18:35:37;;;;;;;4.43;4.03;;;2.30;88.70;;;;;;4998274;28;20230;-77
2023/03/06 18:38:04;;;;;;;4.38;4.05;;;2.30;90.00;;;;;;4997914;28;20218;-79
2023/03/06 18:40:31;;;;;;;4.82;4.28;;;2.30;90.30;;;;;;5002831;28;20233;-79
2023/03/06 18:42:58;;;;;;;4.30;4.00;;;2.30;90.80;;;;;;5007523;28;20202;-77
2023/03/06 18:45:24;;;;;;;4.28;3.92;;;2.30;91.30;;;;;;5008274;28;20210;-77
2023/03/06 18:47:51;;;;;;;4.78;4.10;;;2.30;92.00;;;;;;5005801;28;20597;-77
2023/03/06 18:50:18;;;;;;;4.20;3.83;;;2.30;92.40;;;;;;5004609;28;20205;-76
2023/03/06 18:52:46;;;;;;;5.03;4.03;;;2.20;92.80;;;;;;4999394;28;20198;-77
2023/03/06 18:55:14;;;;;;;5.80;4.35;;;2.20;93.60;;;;;;5000851;28;20277;-78
2023/03/06 18:57:42;;;;;;;4.78;4.30;;;2.30;94.20;;;;;;5001951;28;20634;-77
2023/03/06 19:00:10;;;;;;;4.75;4.22;;;2.20;94.40;;;;;;5005531;28;20233;-77
2023/03/06 19:02:37;;;;;;;5.40;4.68;;;2.20;94.80;;;;;;5002516;28;20223;-78
2023/03/06 19:05:04;;;;;;;5.88;4.70;;;2.20;95.30;;;;;;5002060;28;20199;-77
2023/03/06 19:07:30;;;;;;;4.68;4.28;;;2.20;95.60;;;;;;4999924;28;20199;-77
2023/03/06 19:09:58;;;;;;;4.90;4.38;;;2.20;96.10;;;;;;4996807;28;20693;-77
2023/03/06 19:12:25;;;;;;;6.00;4.45;;;2.10;96.00;;;;;;4996308;28;20293;-78
2023/03/06 19:14:52;;;;;;;6.07;5.10;;;2.10;96.30;;;;;;4996409;28;20214;-77
2023/03/06 19:17:19;;;;;;;6.65;5.05;;;2.10;96.80;;;;;;4997038;28;20214;-77
2023/03/06 19:19:48;;;;;;;5.85;4.80;;;2.10;97.20;;;;;;4999876;28;20202;-78
2023/03/06 19:22:15;;;;;;;7.45;4.90;;;2.10;97.60;;;;;;5000979;28;20222;-78
2023/03/06 19:24:42;;;;;;;6.13;5.05;;;2.10;98.10;;;;;;5001006;28;20203;-78
2023/03/06 19:27:10;;;;;;;5.90;4.90;;;2.00;98.70;;;;;;5001723;28;20206;-78
2023/03/06 19:29:37;;;;;;;4.85;4.45;;;2.10;99.60;;;;;;5002545;28;20278;-79
2023/03/06 19:32:04;;;;;;;4.90;4.47;;;2.10;99.90;;;;;;4999904;28;20226;-79
2023/03/06 19:34:31;;;;;;;4.95;4.40;;;2.10;99.90;;;;;;4997063;28;20203;-77
2023/03/06 19:36:58;;;;;;;7.65;5.50;;;2.00;99.90;;;;;;4996421;28;20209;-77
2023/03/06 19:39:24;;;;;;;6.63;4.72;;;2.00;99.90;;;;;;4996548;28;20213;-77
2023/03/06 19:41:51;;;;;;;5.45;4.57;;;2.00;99.90;;;;;;4996298;28;20218;-76
2023/03/06 19:44:19;;;;;;;6.85;4.88;;;2.00;99.90;;;;;;4997313;28;20199;-77
2023/03/06 19:46:46;;;;;;;5.75;5.13;;;1.90;99.90;;;;;;4997371;28;20206;-78
2023/03/06 19:49:16;;;;;;;5.30;4.80;;;1.90;99.90;;;;;;4999169;28;20199;-77
2023/03/06 19:51:43;;;;;;;5.60;4.47;;;1.90;99.90;;;;;;4998091;28;20223;-76
2023/03/06 19:54:11;;;;;;;4.38;3.83;;;1.90;99.90;;;;;;4998006;28;20550;-76
2023/03/06 19:56:38;;;;;;;5.20;4.18;;;1.80;99.90;;;;;;4997664;28;20670;-77
2023/03/06 19:59:05;;;;;;;4.80;4.10;;;1.80;99.90;;;;;;4998208;28;20206;-77
2023/03/06 20:01:33;;;;;;;4.70;4.30;;;1.70;99.90;;;;;;4997667;28;20292;-76
2023/03/06 20:04:00;;;;;;;4.55;4.15;;;1.70;99.90;;;;;;4996305;28;20282;-76
2023/03/06 20:06:30;;;;;;;4.88;4.32;;;1.70;99.90;;;;;;4996040;28;20206;-77
2023/03/06 20:08:56;;;;;;;4.88;4.38;;;1.70;99.90;;;;;;4995675;28;20210;-77
2023/03/06 20:11:25;;;;;;;5.60;4.50;;;1.60;99.90;;;;;;4995628;28;20222;-76
2023/03/06 20:13:52;;;;;;;4.72;4.28;;;1.60;99.90;;;;;;4995102;28;20580;-77
2023/03/06 20:16:19;;;;;;;6.28;5.03;;;1.60;99.90;;;;;;4995511;28;20217;-77
2023/03/06 20:18:47;;;;;;;5.80;5.15;;;1.60;99.90;;;;;;4995109;28;20206;-76
2023/03/06 20:21:14;;;;;;;5.55;4.70;;;1.50;99.90;;;;;;4996099;28;20234;-77
2023/03/06 20:23:41;;;;;;;6.50;5.10;;;1.50;99.90;;;;;;4995526;28;20203;-77
2023/03/06 20:26:10;;;;;;;6.15;5.35;;;1.50;99.90;;;;;;4996169;28;20210;-77
2023/03/06 20:28:38;;;;;;;6.57;5.47;;;1.50;99.90;;;;;;4995978;28;20209;-76
2023/03/06 20:31:08;;;;;;;5.60;5.05;;;1.40;99.90;;;;;;4996525;28;20226;-77
2023/03/06 20:33:35;;;;;;;5.88;5.20;;;1.40;99.90;;;;;;4996321;28;20213;-77
2023/03/06 20:36:03;;;;;;;6.90;5.20;;;1.40;99.90;;;;;;4996289;28;20206;-76
2023/03/06 20:38:30;;;;;;;5.22;4.53;;;1.30;99.90;;;;;;4996144;28;20202;-77
2023/03/06 20:40:58;;;;;;;5.13;4.63;;;1.30;99.90;;;;;;4995829;28;20223;-77
2023/03/06 20:43:25;;;;;;;5.85;4.60;;;1.30;99.90;;;;;;4995282;28;20302;-77
2023/03/06 20:45:58;;;;;;;4.15;3.72;;;1.30;99.90;;;;;;4994887;28;20229;-76
2023/03/06 20:48:25;;;;;;;5.32;4.70;;;1.30;99.90;;;;;;4995149;28;20211;-77
2023/03/06 20:51:00;;;;;;;5.47;4.60;;;1.30;99.90;;;;;;4996707;28;20229;-77
2023/03/06 20:53:28;;;;;;;8.40;5.10;;;1.20;99.90;;;;;;4995234;28;20773;-78
2023/03/06 20:55:54;;;;;;;8.10;5.43;;;1.20;99.90;;;;;;4998993;28;20222;-78
2023/03/06 20:58:22;;;;;;;8.48;5.97;;;1.20;99.90;;;;;;4998076;28;20202;-78
2023/03/06 21:00:48;;;;;;;8.32;5.90;;;1.20;99.90;;;;;;4997918;28;20585;-77
2023/03/06 21:03:15;;;;;;;7.13;5.20;;;1.20;99.90;;;;;;4999181;28;20215;-78
2023/03/06 21:05:42;;;;;;;6.28;4.78;;;1.10;99.90;;;;;;4999673;28;20202;-78
2023/03/06 21:08:09;;;;;;;6.95;5.28;;;1.10;99.90;;;;;;5001039;28;20209;-78
2023/03/06 21:10:38;;;;;;;8.32;5.65;;;1.10;99.90;;;;;;5000430;28;20225;-78
2023/03/06 21:13:05;;;;;;;5.95;4.47;;;1.10;99.90;;;;;;4995843;28;20210;-77
2023/03/06 21:15:31;;;;;;;6.80;5.18;;;1.10;99.90;;;;;;4996895;28;20225;-78
2023/03/06 21:17:59;;;;;;;8.27;5.30;;;1.10;99.90;;;;;;5001004;28;20217;-78
2023/03/06 21:20:25;;;;;;;5.03;4.50;;;1.10;99.90;;;;;;4997621;28;20233;-77
2023/03/06 21:22:52;;;;;;;7.45;5.60;;;1.10;99.90;;;;;;5000080;28;20559;-78
2023/03/06 21:25:19;;;;;;;5.30;4.55;;;1.10;99.90;;;;;;4996609;28;20213;-78
2023/03/06 21:27:47;;;;;;;5.78;4.70;;;1.10;99.90;;;;;;4994943;28;20673;-78
2023/03/06 21:30:14;;;;;;;4.70;4.28;;;1.10;99.90;;;;;;4995735;28;20202;-78
2023/03/06 21:32:41;;;;;;;6.55;5.05;;;1.10;99.90;;;;;;4995455;28;20210;-78
2023/03/06 21:35:08;;;;;;;5.53;4.50;;;1.10;99.90;;;;;;4995721;28;20203;-77
2023/03/06 21:37:34;;;;;;;5.32;4.45;;;1.10;99.90;;;;;;4996751;28;20210;-77
2023/03/06 21:40:04;;;;;;;4.63;4.25;;;1.10;99.90;;;;;;5003419;28;20571;-78
2023/03/06 21:42:34;;;;;;;4.30;3.90;;;1.10;99.90;;;;;;5006145;28;20282;-78
2023/03/06 21:45:02;;;;;;;3.90;3.50;;;1.10;99.90;;;;;;5002811;28;20289;-79
2023/03/06 21:47:30;;;;;;;4.20;3.80;;;1.20;99.90;;;;;;4999482;28;20234;-77
2023/03/06 21:49:57;;;;;;;5.43;4.88;;;1.10;99.90;;;;;;5002335;28;20256;-79
2023/03/06 21:52:23;;;;;;;7.65;5.10;;;1.10;99.90;;;;;;5002743;28;20733;-78
2023/03/06 21:54:50;;;;;;;5.28;4.40;;;1.10;99.90;;;;;;5002052;28;20214;-78
2023/03/06 21:57:17;;;;;;;4.63;4.22;;;1.10;99.90;;;;;;5002467;28;20206;-78
2023/03/06 21:59:43;;;;;;;5.30;4.65;;;1.10;99.90;;;;;;5004606;28;20210;-78
2023/03/06 22:02:11;;;;;;;5.22;4.60;;;1.10;99.90;;;;;;5008995;28;20249;-78
2023/03/06 22:04:38;;;;;;;4.90;4.35;;;1.10;99.90;;;;;;5006783;28;20206;-78
2023/03/06 22:07:05;;;;;;;5.53;4.40;;;1.10;99.90;;;;;;5007301;28;20237;-78
2023/03/06 22:09:34;;;;;;;5.72;4.43;;;1.10;99.90;;;;;;5009856;28;20692;-78
2023/03/06 22:12:02;;;;;;;4.95;4.53;;;1.10;99.90;;;;;;5001463;28;20219;-78
2023/03/06 22:14:29;;;;;;;4.28;3.88;;;1.10;99.90;;;;;;5000523;28;20214;-79
2023/03/06 22:16:56;;;;;;;4.22;3.83;;;1.10;99.90;;;;;;5000707;28;20210;-79
2023/03/06 22:19:24;;;;;;;5.28;4.40;;;1.10;99.90;;;;;;4999960;28;20210;-79
2023/03/06 22:21:51;;;;;;;4.13;3.75;;;1.10;99.90;;;;;;5000375;28;20290;-78
2023/03/06 22:24:17;;;;;;;4.63;4.13;;;1.10;99.90;;;;;;5002387;28;20206;-78
2023/03/06 22:26:44;;;;;;;4.45;4.05;;;1.00;99.90;;;;;;4998220;28;20207;-77
2023/03/06 22:29:11;;;;;;;3.90;3.60;;;1.10;99.90;;;;;;4997527;28;20207;-77
2023/03/06 22:31:38;;;;;;;4.57;4.15;;;1.10;99.90;;;;;;4997365;28;20222;-77
2023/03/06 22:34:05;;;;;;;3.90;3.53;;;1.10;99.90;;;;;;4998650;28;20206;-77
2023/03/06 22:36:33;;;;;;;3.97;3.50;;;1.10;99.90;;;;;;4999752;28;20206;-78
2023/03/06 22:39:01;;;;;;;4.60;4.15;;;1.10;99.90;;;;;;5000033;28;20203;-78
2023/03/06 22:41:28;;;;;;;5.15;4.43;;;1.10;99.90;;;;;;5000318;28;20227;-78
2023/03/06 22:43:56;;;;;;;3.58;3.28;;;1.10;99.90;;;;;;5000536;28;20226;-78
2023/03/06 22:46:23;;;;;;;4.45;4.07;;;1.10;99.90;;;;;;4999643;28;20207;-78
2023/03/06 22:48:50;;;;;;;4.18;3.78;;;1.10;99.90;;;;;;4997657;28;20214;-77
2023/03/06 22:51:18;;;;;;;4.07;3.63;;;1.10;99.90;;;;;;5002261;28;20234;-78
2023/03/06 22:53:47;;;;;;;3.33;3.03;;;1.10;99.90;;;;;;5001283;28;20221;-78
2023/03/06 22:56:16;;;;;;;6.00;4.45;;;1.10;99.90;;;;;;4997083;28;20209;-78
2023/03/06 22:58:43;;;;;;;5.55;4.55;;;1.10;99.90;;;;;;4997275;28;20198;-78
2023/03/06 23:01:12;;;;;;;4.63;4.10;;;1.10;99.90;;;;;;4997628;28;20231;-78
2023/03/06 23:03:40;;;;;;;3.88;3.58;;;1.10;99.90;;;;;;4997334;28;20218;-78
2023/03/06 23:06:11;;;;;;;4.63;3.90;;;1.10;99.90;;;;;;4999405;28;20203;-80
